Time;durP1;ratioP1;P1;durP2;ratioP2;P2;SDS_P1;SDS_P2;PMS_P1;PMS_P2;Temp;Humidity;BMP_temperature;BMP_pressure;BME280_temperature;BME280_humidity;BME280_pressure;Samples;Min_cycle;Max_cycle;Signal;HPM_P1;HPM_P2
2022/03/07 00:01:15;;;;;;;18.40;9.35;;;;;;;0.61;94.31;102739.59;5055896;28;20055;-55
2022/03/07 00:03:40;;;;;;;18.00;9.20;;;;;;;0.60;95.10;102732.59;5054442;28;20040;-55
2022/03/07 00:06:06;;;;;;;15.48;8.80;;;;;;;0.54;95.11;102728.41;5055353;28;20105;-55
2022/03/07 00:08:31;;;;;;;20.85;9.13;;;;;;;0.51;94.58;102725.88;5054815;28;20692;-54
2022/03/07 00:10:57;;;;;;;17.65;9.07;;;;;;;0.50;95.22;102721.50;5051776;28;20025;-53
2022/03/07 00:13:23;;;;;;;13.75;8.55;;;;;;;0.50;95.99;102732.03;5044919;28;20029;-55
2022/03/07 00:15:49;;;;;;;17.52;9.48;;;;;;;0.46;95.33;102733.03;5016904;28;20439;-55
2022/03/07 00:18:14;;;;;;;17.40;9.02;;;;;;;0.47;96.09;102732.13;5051408;28;20154;-55
2022/03/07 00:20:40;;;;;;;17.42;9.30;;;;;;;0.46;96.05;102738.31;5051260;28;20044;-55
2022/03/07 00:23:05;;;;;;;21.13;9.60;;;;;;;0.43;96.41;102737.53;5035179;28;20098;-55
2022/03/07 00:25:30;;;;;;;20.23;9.13;;;;;;;0.39;96.59;102736.78;5041206;28;20124;-55
2022/03/07 00:27:56;;;;;;;18.17;8.88;;;;;;;0.39;96.60;102739.41;5024800;28;20025;-54
2022/03/07 00:30:21;;;;;;;19.67;9.13;;;;;;;0.36;96.35;102732.47;5037399;28;20476;-55
2022/03/07 00:32:47;;;;;;;16.48;9.45;;;;;;;0.36;97.09;102740.34;5049223;28;20474;-55
2022/03/07 00:35:12;;;;;;;17.75;9.45;;;;;;;0.31;96.73;102744.03;5033728;28;20128;-54
2022/03/07 00:37:38;;;;;;;21.45;9.30;;;;;;;0.23;96.02;102744.25;5034490;28;20167;-54
2022/03/07 00:40:06;;;;;;;21.55;9.38;;;;;;;0.22;97.44;102746.94;5035186;28;20021;-55
2022/03/07 00:42:32;;;;;;;19.13;9.63;;;;;;;0.17;96.82;102739.19;5015642;28;20059;-55
2022/03/07 00:44:57;;;;;;;16.70;9.98;;;;;;;0.12;97.74;102738.47;5037258;28;20046;-55
2022/03/07 00:47:22;;;;;;;20.80;10.07;;;;;;;0.14;97.31;102741.94;5048369;28;20025;-55
2022/03/07 00:49:47;;;;;;;19.27;9.55;;;;;;;0.09;98.28;102747.31;5048247;28;20025;-55
2022/03/07 00:52:14;;;;;;;16.55;10.02;;;;;;;0.10;98.65;102745.53;5032072;28;20490;-55
2022/03/07 00:54:40;;;;;;;16.55;9.82;;;;;;;0.09;98.45;102749.94;5039532;28;20025;-55
2022/03/07 00:57:05;;;;;;;19.30;10.30;;;;;;;0.07;98.42;102745.63;5034444;28;20105;-55
2022/03/07 00:59:30;;;;;;;23.95;10.43;;;;;;;0.01;98.41;102745.84;5032904;28;20135;-55
2022/03/07 01:01:56;;;;;;;18.73;9.45;;;;;;;-0.03;98.58;102745.91;5035671;28;20357;-53
2022/03/07 01:04:21;;;;;;;19.48;9.27;;;;;;;-0.05;99.44;102746.84;5021710;28;20077;-55
2022/03/07 01:06:46;;;;;;;17.17;9.75;;;;;;;-0.08;99.31;102746.97;5053972;28;20610;-55
2022/03/07 01:09:11;;;;;;;18.90;9.93;;;;;;;-0.11;99.07;102749.69;5055055;28;20040;-55
2022/03/07 01:11:37;;;;;;;19.75;10.18;;;;;;;-0.14;98.79;102753.25;5047575;28;20059;-56
2022/03/07 01:14:02;;;;;;;21.13;9.45;;;;;;;-0.17;100.00;102748.09;5040184;28;20060;-55
2022/03/07 01:16:28;;;;;;;19.42;9.70;;;;;;;-0.20;99.58;102749.03;5034423;28;20052;-55
2022/03/07 01:18:53;;;;;;;18.23;10.40;;;;;;;-0.20;100.00;102753.44;5046870;28;20432;-55
2022/03/07 01:21:18;;;;;;;18.08;9.77;;;;;;;-0.21;100.00;102755.19;5052886;28;20127;-55
2022/03/07 01:23:44;;;;;;;20.20;9.65;;;;;;;-0.23;100.00;102753.53;5047826;28;20330;-55
2022/03/07 01:26:09;;;;;;;22.00;10.13;;;;;;;-0.28;100.00;102744.91;5034504;28;20423;-55
2022/03/07 01:28:34;;;;;;;18.75;9.80;;;;;;;-0.29;100.00;102749.31;5047547;28;21061;-55
2022/03/07 01:31:00;;;;;;;17.42;9.63;;;;;;;-0.30;99.98;102749.34;5034571;28;20106;-54
2022/03/07 01:33:25;;;;;;;23.73;10.05;;;;;;;-0.34;100.00;102745.97;5016435;28;20415;-55
2022/03/07 01:35:50;;;;;;;17.38;9.82;;;;;;;-0.35;100.00;102748.63;5045620;28;20060;-55
2022/03/07 01:38:15;;;;;;;17.70;10.02;;;;;;;-0.40;100.00;102748.75;5028839;28;20056;-55
2022/03/07 01:40:42;;;;;;;20.98;9.48;;;;;;;-0.44;100.00;102742.72;5034483;28;20051;-54
2022/03/07 01:43:08;;;;;;;17.63;9.32;;;;;;;-0.45;100.00;102754.13;5033138;28;20025;-55
2022/03/07 01:45:33;;;;;;;19.27;9.85;;;;;;;-0.48;100.00;102753.34;5033430;28;20356;-55
2022/03/07 01:47:58;;;;;;;17.45;9.98;;;;;;;-0.52;100.00;102755.19;5033669;28;20093;-54
2022/03/07 01:50:23;;;;;;;17.55;9.85;;;;;;;-0.57;100.00;102746.59;5048512;28;20114;-55
2022/03/07 01:52:51;;;;;;;22.83;9.75;;;;;;;-0.59;100.00;102748.41;5047919;28;20056;-54
2022/03/07 01:55:17;;;;;;;16.65;9.25;;;;;;;-0.62;100.00;102754.56;5032374;28;20112;-55
2022/03/07 01:57:45;;;;;;;19.50;9.88;;;;;;;-0.67;100.00;102748.59;5033926;28;20471;-55
2022/03/07 02:00:14;;;;;;;19.52;9.93;;;;;;;-0.70;100.00;102747.81;5045849;28;20102;-54
2022/03/07 02:02:40;;;;;;;21.80;10.23;;;;;;;-0.75;100.00;102740.06;5041666;28;20040;-54
2022/03/07 02:05:06;;;;;;;22.75;10.15;;;;;;;-0.80;100.00;102739.31;5032536;28;20040;-54
2022/03/07 02:07:32;;;;;;;20.70;10.43;;;;;;;-0.82;100.00;102735.88;5033699;28;20174;-54
2022/03/07 02:09:59;;;;;;;17.88;9.80;;;;;;;-0.83;100.00;102732.41;5052269;28;20119;-55
2022/03/07 02:12:24;;;;;;;19.08;10.50;;;;;;;-0.88;100.00;102733.41;5051763;28;20051;-54
2022/03/07 02:14:50;;;;;;;23.15;10.32;;;;;;;-0.89;100.00;102736.97;5038103;28;20107;-54
2022/03/07 02:17:15;;;;;;;18.95;10.13;;;;;;;-0.94;100.00;102732.66;5041285;28;20108;-54
2022/03/07 02:19:42;;;;;;;20.02;10.85;;;;;;;-0.96;100.00;102724.00;5040422;28;20037;-54
2022/03/07 02:22:08;;;;;;;18.75;10.63;;;;;;;-0.97;100.00;102721.41;5043689;28;20024;-55
2022/03/07 02:24:33;;;;;;;23.02;10.20;;;;;;;-1.01;100.00;102730.25;5033264;28;20468;-54
2022/03/07 02:27:01;;;;;;;19.02;10.65;;;;;;;-1.03;100.00;102726.84;5034161;28;20388;-55
2022/03/07 02:29:28;;;;;;;19.35;11.02;;;;;;;-1.04;100.00;102732.97;5051815;28;20134;-54
2022/03/07 02:31:53;;;;;;;22.17;11.13;;;;;;;-1.07;100.00;102722.53;5039692;28;20033;-53
2022/03/07 02:34:19;;;;;;;23.00;11.30;;;;;;;-1.11;100.00;102716.53;5046166;28;20131;-55
2022/03/07 02:36:44;;;;;;;25.17;11.68;;;;;;;-1.14;100.00;102719.22;5041636;28;20246;-55
2022/03/07 02:39:11;;;;;;;20.77;11.27;;;;;;;-1.17;100.00;102721.91;5043903;28;20031;-54
2022/03/07 02:41:37;;;;;;;23.95;11.38;;;;;;;-1.19;100.00;102724.59;5033236;28;20460;-55
2022/03/07 02:44:03;;;;;;;24.75;11.35;;;;;;;-1.21;100.00;102729.00;5044599;28;20040;-55
2022/03/07 02:46:28;;;;;;;25.85;11.07;;;;;;;-1.22;100.00;102727.28;5052192;28;20028;-55
2022/03/07 02:48:54;;;;;;;25.20;10.85;;;;;;;-1.24;100.00;102721.22;5052628;28;20031;-55
2022/03/07 02:51:19;;;;;;;20.33;10.55;;;;;;;-1.24;100.00;102722.97;5045687;28;20025;-55
2022/03/07 02:53:44;;;;;;;20.63;10.57;;;;;;;-1.29;100.00;102720.50;5035364;28;20574;-55
2022/03/07 02:56:09;;;;;;;19.85;10.32;;;;;;;-1.32;100.00;102720.56;5026715;28;20107;-55
2022/03/07 02:58:35;;;;;;;23.42;10.95;;;;;;;-1.35;100.00;102724.09;5032704;28;20107;-55
2022/03/07 03:01:00;;;;;;;19.27;10.73;;;;;;;-1.36;100.00;102729.38;5042896;28;20026;-55
2022/03/07 03:03:26;;;;;;;20.20;10.80;;;;;;;-1.39;100.00;102719.84;5039588;28;20024;-55
2022/03/07 03:05:54;;;;;;;19.63;10.65;;;;;;;-1.37;100.00;102719.81;5032739;28;20405;-55
2022/03/07 03:08:20;;;;;;;21.95;10.15;;;;;;;-1.40;100.00;102715.50;5031947;28;20028;-55
2022/03/07 03:10:46;;;;;;;23.10;10.85;;;;;;;-1.36;100.00;102716.28;5033447;28;20056;-55
2022/03/07 03:13:11;;;;;;;22.10;10.90;;;;;;;-1.33;100.00;102711.81;5032766;28;20067;-55
2022/03/07 03:15:36;;;;;;;21.35;10.23;;;;;;;-1.34;100.00;102717.09;5033048;28;20029;-56
2022/03/07 03:18:02;;;;;;;21.98;10.75;;;;;;;-1.35;100.00;102720.63;5041396;28;20501;-55
2022/03/07 03:20:27;;;;;;;19.67;10.55;;;;;;;-1.36;100.00;102717.16;5048593;28;20070;-55
2022/03/07 03:22:53;;;;;;;17.60;9.93;;;;;;;-1.38;100.00;102718.94;5036443;28;20158;-56
2022/03/07 03:25:18;;;;;;;21.65;10.70;;;;;;;-1.43;100.00;102712.09;5032344;28;20028;-55
2022/03/07 03:27:43;;;;;;;23.05;11.00;;;;;;;-1.46;100.00;102713.03;5045038;28;20029;-55
2022/03/07 03:30:11;;;;;;;19.15;10.77;;;;;;;-1.52;100.00;102713.19;5055170;28;20140;-55
2022/03/07 03:32:36;;;;;;;21.10;10.82;;;;;;;-1.53;100.00;102708.81;5037673;28;20463;-55
2022/03/07 03:35:02;;;;;;;22.40;11.05;;;;;;;-1.52;100.00;102711.41;5053620;28;20383;-56
2022/03/07 03:37:28;;;;;;;19.55;10.60;;;;;;;-1.52;100.00;102719.28;5049090;28;20467;-55
2022/03/07 03:39:54;;;;;;;19.42;10.63;;;;;;;-1.54;100.00;102718.44;5045812;28;20020;-55
2022/03/07 03:42:19;;;;;;;21.63;11.13;;;;;;;-1.56;100.00;102720.25;5055305;28;20024;-55
2022/03/07 03:44:45;;;;;;;20.58;11.32;;;;;;;-1.56;100.00;102725.50;5037528;28;20350;-55
2022/03/07 03:47:10;;;;;;;22.80;11.15;;;;;;;-1.58;100.00;102719.44;5035997;28;20123;-55
2022/03/07 03:49:35;;;;;;;23.05;11.45;;;;;;;-1.54;100.00;102720.22;5035062;28;20047;-55
2022/03/07 03:52:01;;;;;;;22.55;11.20;;;;;;;-1.52;100.00;102723.66;5037976;28;20052;-55
2022/03/07 03:54:27;;;;;;;24.55;11.15;;;;;;;-1.52;100.00;102719.28;5043621;28;20455;-55
2022/03/07 03:56:52;;;;;;;21.17;11.55;;;;;;;-1.51;100.00;102722.75;5049534;28;20120;-55
2022/03/07 03:59:17;;;;;;;25.38;11.68;;;;;;;-1.48;100.00;102724.44;5035329;28;20282;-55
2022/03/07 04:01:44;;;;;;;20.65;10.52;;;;;;;-1.47;100.00;102721.78;5036919;28;20028;-55
2022/03/07 04:04:10;;;;;;;19.58;10.93;;;;;;;-1.46;100.00;102714.78;5047800;28;20449;-55
2022/03/07 04:06:36;;;;;;;20.33;10.57;;;;;;;-1.45;100.00;102719.97;5055462;28;20557;-55
2022/03/07 04:09:01;;;;;;;19.48;10.18;;;;;;;-1.44;100.00;102720.84;5044183;28;20036;-55
2022/03/07 04:11:26;;;;;;;23.20;11.20;;;;;;;-1.45;100.00;102719.97;5055521;28;20032;-55
2022/03/07 04:13:52;;;;;;;24.15;11.57;;;;;;;-1.46;100.00;102725.25;5055729;28;20075;-55
2022/03/07 04:16:17;;;;;;;21.73;10.82;;;;;;;-1.45;100.00;102717.38;5035707;28;20043;-55
2022/03/07 04:18:42;;;;;;;18.77;10.50;;;;;;;-1.46;100.00;102720.91;5035125;28;20016;-55
2022/03/07 04:21:08;;;;;;;24.15;11.07;;;;;;;-1.48;100.00;102719.19;5016170;28;20037;-55
2022/03/07 04:23:33;;;;;;;21.15;11.25;;;;;;;-1.49;100.00;102715.72;5042733;28;20059;-56
2022/03/07 04:25:59;;;;;;;20.25;11.57;;;;;;;-1.50;100.00;102722.69;5036176;28;20450;-55
2022/03/07 04:28:24;;;;;;;19.27;11.13;;;;;;;-1.52;100.00;102723.66;5047957;28;20032;-55
2022/03/07 04:30:49;;;;;;;22.42;11.25;;;;;;;-1.53;100.00;102724.53;5055675;28;20056;-55
2022/03/07 04:33:15;;;;;;;21.60;11.30;;;;;;;-1.53;100.00;102722.81;5054436;28;20107;-55
2022/03/07 04:35:40;;;;;;;21.02;10.55;;;;;;;-1.55;100.00;102723.72;5055204;28;20063;-55
2022/03/07 04:38:06;;;;;;;20.02;11.35;;;;;;;-1.58;100.00;102726.41;5044985;28;20021;-55
2022/03/07 04:40:31;;;;;;;24.25;11.20;;;;;;;-1.61;100.00;102722.13;5036059;28;20024;-55
2022/03/07 04:42:56;;;;;;;24.05;12.23;;;;;;;-1.60;100.00;102726.44;5048588;28;20074;-55
2022/03/07 04:45:22;;;;;;;22.13;11.60;;;;;;;-1.62;100.00;102728.25;5035857;28;20017;-55
2022/03/07 04:47:48;;;;;;;22.38;11.52;;;;;;;-1.63;100.00;102734.41;5039089;28;20055;-55
2022/03/07 04:50:14;;;;;;;23.20;11.55;;;;;;;-1.64;100.00;102724.81;5034326;28;20029;-56
2022/03/07 04:52:41;;;;;;;22.27;12.13;;;;;;;-1.67;100.00;102722.25;5034250;28;20112;-55
2022/03/07 04:55:08;;;;;;;24.92;12.27;;;;;;;-1.66;100.00;102731.84;5042261;28;20243;-55
2022/03/07 04:57:33;;;;;;;25.27;12.65;;;;;;;-1.69;100.00;102730.13;5034932;28;20394;-55
2022/03/07 04:59:59;;;;;;;25.38;12.10;;;;;;;-1.71;100.00;102726.69;5045989;28;20036;-55
2022/03/07 05:02:24;;;;;;;27.30;11.30;;;;;;;-1.72;100.00;102731.97;5044776;28;20043;-56
2022/03/07 05:04:49;;;;;;;23.02;12.05;;;;;;;-1.75;100.00;102719.81;5016232;28;20371;-55
2022/03/07 05:07:14;;;;;;;26.73;12.45;;;;;;;-1.77;100.00;102720.75;5038543;28;20505;-55
2022/03/07 05:09:40;;;;;;;22.90;11.80;;;;;;;-1.82;100.00;102712.97;5046770;28;20047;-56
2022/03/07 05:12:06;;;;;;;26.13;12.07;;;;;;;-1.80;100.00;102715.56;5045640;28;20047;-56
2022/03/07 05:14:31;;;;;;;24.10;12.27;;;;;;;-1.80;100.00;102715.56;5053626;28;20577;-55
2022/03/07 05:16:56;;;;;;;22.98;12.02;;;;;;;-1.82;100.00;102715.59;5054398;28;20025;-56
2022/03/07 05:19:23;;;;;;;22.35;12.45;;;;;;;-1.87;100.00;102712.22;5052944;28;20266;-56
2022/03/07 05:21:49;;;;;;;26.60;12.40;;;;;;;-1.87;100.00;102714.84;5035973;28;20089;-56
2022/03/07 05:24:14;;;;;;;23.55;12.38;;;;;;;-1.88;100.00;102721.00;5054591;28;20032;-56
2022/03/07 05:26:39;;;;;;;25.63;12.57;;;;;;;-1.93;100.00;102718.47;5054394;28;20082;-56
2022/03/07 05:29:06;;;;;;;26.95;12.90;;;;;;;-1.94;100.00;102714.13;5044649;28;20033;-54
2022/03/07 05:31:31;;;;;;;31.08;12.35;;;;;;;-1.96;100.00;102717.69;5036942;28;20475;-54
2022/03/07 05:33:57;;;;;;;26.55;12.38;;;;;;;-1.96;100.00;102722.91;5039923;28;20025;-55
2022/03/07 05:36:22;;;;;;;24.08;13.27;;;;;;;-1.99;100.00;102721.22;5047145;28;20087;-55
2022/03/07 05:38:48;;;;;;;23.95;12.90;;;;;;;-2.00;100.00;102713.38;5054250;28;20047;-55
2022/03/07 05:41:14;;;;;;;22.33;12.00;;;;;;;-2.01;100.00;102711.69;5054243;28;20490;-55
2022/03/07 05:43:39;;;;;;;27.50;13.05;;;;;;;-2.02;100.00;102708.22;5039075;28;20119;-55
2022/03/07 05:46:06;;;;;;;24.15;12.95;;;;;;;-2.04;100.00;102706.50;5054459;28;20036;-55
2022/03/07 05:48:31;;;;;;;24.10;12.82;;;;;;;-2.04;100.00;102712.59;5046225;28;20090;-55
2022/03/07 05:50:57;;;;;;;24.27;12.70;;;;;;;-2.05;100.00;102721.38;5038280;28;20663;-55
2022/03/07 05:53:23;;;;;;;24.95;13.75;;;;;;;-2.07;100.00;102729.25;5050273;28;20523;-56
2022/03/07 05:55:49;;;;;;;26.42;14.10;;;;;;;-2.08;100.00;102724.91;5018164;28;20021;-55
2022/03/07 05:58:15;;;;;;;30.88;13.85;;;;;;;-2.08;100.00;102726.66;5046678;28;20113;-55
2022/03/07 06:00:40;;;;;;;29.35;13.82;;;;;;;-2.09;100.00;102727.53;5053533;28;20628;-55
2022/03/07 06:03:06;;;;;;;27.77;13.38;;;;;;;-2.08;100.00;102734.50;5038236;28;20033;-55
2022/03/07 06:05:31;;;;;;;28.95;14.05;;;;;;;-2.09;100.00;102743.25;5033849;28;20403;-55
2022/03/07 06:07:56;;;;;;;27.58;14.02;;;;;;;-2.10;100.00;102744.16;5037423;28;20110;-55
2022/03/07 06:10:22;;;;;;;29.63;14.00;;;;;;;-2.10;100.00;102752.00;5044123;28;20036;-55
2022/03/07 06:12:47;;;;;;;28.63;14.40;;;;;;;-2.12;100.00;102749.44;5043078;28;20039;-55
2022/03/07 06:15:13;;;;;;;31.55;14.05;;;;;;;-2.11;100.00;102755.50;5045454;28;20032;-55
2022/03/07 06:17:54;;;;;;;25.60;13.70;;;;;;;-2.14;100.00;102759.06;5052690;28;20459;-55
2022/03/07 06:20:21;;;;;;;27.80;13.57;;;;;;;-2.15;100.00;102765.19;5052626;28;20028;-54
2022/03/07 06:22:46;;;;;;;32.03;13.73;;;;;;;-2.13;100.00;102765.16;5052430;28;20463;-55
2022/03/07 06:25:12;;;;;;;29.45;14.15;;;;;;;-2.14;100.00;102758.19;5053214;28;20040;-55
2022/03/07 06:27:37;;;;;;;35.00;13.80;;;;;;;-2.11;100.00;102763.38;5052673;28;20024;-55
2022/03/07 06:30:03;;;;;;;29.00;14.15;;;;;;;-2.10;100.00;102767.72;5050291;28;20888;-55
2022/03/07 06:32:28;;;;;;;30.27;15.02;;;;;;;-2.08;100.00;102771.16;5047913;28;20028;-55
2022/03/07 06:34:54;;;;;;;31.42;14.57;;;;;;;-2.06;100.00;102774.59;5045991;28;20055;-55
2022/03/07 06:37:19;;;;;;;31.80;14.77;;;;;;;-2.02;100.00;102762.31;5052812;28;20213;-55
2022/03/07 06:39:44;;;;;;;29.95;14.57;;;;;;;-2.03;100.00;102766.69;5053753;28;20029;-55
2022/03/07 06:42:10;;;;;;;28.52;14.30;;;;;;;-2.00;100.00;102782.34;5053150;28;20020;-54
2022/03/07 06:44:39;;;;;;;29.40;14.90;;;;;;;-1.97;100.00;102776.16;5052830;28;20032;-55
2022/03/07 06:47:06;;;;;;;25.67;13.85;;;;;;;-1.93;100.00;102783.94;5042714;28;20077;-55
2022/03/07 06:49:31;;;;;;;34.35;14.15;;;;;;;-1.91;100.00;102779.53;5052346;28;20051;-55
2022/03/07 06:51:56;;;;;;;33.38;14.90;;;;;;;-1.88;100.00;102778.59;5021313;28;20037;-56
2022/03/07 06:54:21;;;;;;;26.90;13.88;;;;;;;-1.85;100.00;102778.53;5040580;28;20077;-54
2022/03/07 06:56:47;;;;;;;31.90;15.50;;;;;;;-1.85;100.00;102773.31;5053369;28;20039;-55
2022/03/07 06:59:12;;;;;;;33.47;16.20;;;;;;;-1.78;100.00;102780.13;5052120;28;20473;-55
2022/03/07 07:01:37;;;;;;;35.60;15.77;;;;;;;-1.75;100.00;102774.84;5042422;28;20048;-53
2022/03/07 07:04:02;;;;;;;28.05;14.95;;;;;;;-1.73;100.00;102777.38;5040043;28;20027;-55
2022/03/07 07:06:28;;;;;;;30.13;15.20;;;;;;;-1.68;100.00;102778.19;5054741;28;20179;-56
2022/03/07 07:08:53;;;;;;;28.00;15.27;;;;;;;-1.64;100.00;102771.09;5052825;28;20044;-55
2022/03/07 07:11:18;;;;;;;33.95;15.55;;;;;;;-1.61;100.00;102777.13;5056030;28;20123;-55
2022/03/07 07:13:44;;;;;;;32.55;15.05;;;;;;;-1.55;100.00;102776.13;5051790;28;20058;-56
2022/03/07 07:16:09;;;;;;;31.48;15.73;;;;;;;-1.50;100.00;102772.50;5057007;28;20036;-55
2022/03/07 07:18:34;;;;;;;31.40;15.75;;;;;;;-1.43;100.00;102782.84;5046736;28;20033;-55
2022/03/07 07:20:59;;;;;;;33.10;15.77;;;;;;;-1.37;100.00;102775.69;5042452;28;20392;-55
2022/03/07 07:23:25;;;;;;;29.73;16.08;;;;;;;-1.32;100.00;102781.69;5053049;28;20032;-56
2022/03/07 07:25:50;;;;;;;30.55;15.15;;;;;;;-1.25;100.00;102778.94;5054369;28;20492;-56
2022/03/07 07:28:16;;;;;;;33.05;15.73;;;;;;;-1.19;100.00;102774.41;5045017;28;20036;-56
2022/03/07 07:30:41;;;;;;;32.58;15.30;;;;;;;-1.11;100.00;102779.44;5042691;28;20021;-55
2022/03/07 07:33:06;;;;;;;30.08;15.68;;;;;;;-1.06;100.00;102776.72;5056448;28;20032;-54
2022/03/07 07:35:34;;;;;;;29.65;15.02;;;;;;;-0.96;100.00;102781.69;5049316;28;20041;-55
2022/03/07 07:38:00;;;;;;;30.58;15.23;;;;;;;-0.86;100.00;102777.09;5055362;28;20165;-55
2022/03/07 07:40:25;;;;;;;30.65;15.60;;;;;;;-0.78;100.00;102780.38;5052281;28;20029;-56
2022/03/07 07:42:50;;;;;;;28.58;15.75;;;;;;;-0.68;100.00;102785.38;5043130;28;20494;-56
2022/03/07 07:45:16;;;;;;;25.85;14.95;;;;;;;-0.57;100.00;102785.94;5048282;28;20041;-54
2022/03/07 07:47:43;;;;;;;25.23;14.60;;;;;;;-0.48;100.00;102793.56;5043970;28;20063;-55
2022/03/07 07:50:08;;;;;;;27.70;15.20;;;;;;;-0.39;100.00;102798.59;5036350;28;20041;-56
2022/03/07 07:52:34;;;;;;;29.83;15.82;;;;;;;-0.30;100.00;102796.63;5051766;28;20503;-55
2022/03/07 07:54:59;;;;;;;32.03;15.45;;;;;;;-0.23;100.00;102799.00;5053948;28;20036;-55
2022/03/07 07:57:24;;;;;;;26.90;15.15;;;;;;;-0.15;100.00;102788.31;5050851;28;20545;-55
2022/03/07 07:59:49;;;;;;;37.83;16.33;;;;;;;-0.09;100.00;102796.00;5050113;28;20024;-55
2022/03/07 08:02:15;;;;;;;32.10;16.00;;;;;;;0.01;100.00;102801.00;5043945;28;20021;-55
2022/03/07 08:04:40;;;;;;;32.47;16.00;;;;;;;0.10;100.00;102808.59;5034971;28;20315;-56
2022/03/07 08:07:05;;;;;;;30.40;16.15;;;;;;;0.20;100.00;102806.56;5035647;28;20079;-55
2022/03/07 08:09:31;;;;;;;31.17;15.43;;;;;;;0.28;100.00;102802.78;5036828;28;20451;-55
2022/03/07 08:11:56;;;;;;;29.50;15.48;;;;;;;0.38;100.00;102797.28;5041455;28;20120;-55
2022/03/07 08:14:21;;;;;;;32.67;15.63;;;;;;;0.49;100.00;102790.78;5036914;28;20103;-55
2022/03/07 08:16:47;;;;;;;27.98;14.40;;;;;;;0.57;100.00;102801.03;5035574;28;20028;-56
2022/03/07 08:19:12;;;;;;;31.15;15.75;;;;;;;0.66;100.00;102798.16;5035420;28;20079;-57
2022/03/07 08:21:37;;;;;;;33.85;15.57;;;;;;;0.78;100.00;102799.53;5037784;28;20293;-55
2022/03/07 08:24:03;;;;;;;25.15;14.75;;;;;;;0.88;100.00;102800.06;5034668;28;20051;-55
2022/03/07 08:26:28;;;;;;;30.15;15.60;;;;;;;1.00;100.00;102794.41;5038325;28;20016;-55
2022/03/07 08:28:54;;;;;;;27.05;14.45;;;;;;;1.13;100.00;102789.59;5050032;28;20676;-55
2022/03/07 08:31:19;;;;;;;27.98;14.70;;;;;;;1.26;100.00;102790.91;5042990;28;20082;-53
2022/03/07 08:33:45;;;;;;;28.60;13.90;;;;;;;1.38;99.74;102791.41;5032983;28;20037;-55
2022/03/07 08:36:10;;;;;;;27.20;13.93;;;;;;;1.48;97.99;102791.00;5054819;28;20067;-54
2022/03/07 08:38:35;;;;;;;27.75;15.05;;;;;;;1.59;96.83;102790.63;5044729;28;20458;-55
2022/03/07 08:41:01;;;;;;;26.38;14.13;;;;;;;1.70;96.47;102799.91;5036147;28;20028;-55
2022/03/07 08:43:26;;;;;;;28.05;13.82;;;;;;;1.76;94.78;102789.16;5033878;28;20119;-55
2022/03/07 08:45:51;;;;;;;25.98;13.88;;;;;;;1.86;94.28;102798.44;5020494;28;20124;-56
2022/03/07 08:48:17;;;;;;;26.55;14.25;;;;;;;1.97;94.55;102788.38;5047070;28;20082;-56
2022/03/07 08:50:42;;;;;;;24.90;13.35;;;;;;;2.09;94.60;102792.34;5048413;28;20314;-55
2022/03/07 08:53:08;;;;;;;23.10;12.80;;;;;;;2.20;91.41;102792.75;5036602;28;20174;-55
2022/03/07 08:55:33;;;;;;;22.40;12.30;;;;;;;2.30;90.48;102781.88;5045700;28;20035;-55
2022/03/07 08:57:58;;;;;;;22.02;12.30;;;;;;;2.42;91.17;102778.75;5035491;28;20029;-55
2022/03/07 09:00:24;;;;;;;32.53;13.00;;;;;;;2.54;89.31;102778.28;5037242;28;20029;-54
2022/03/07 09:02:49;;;;;;;22.90;11.48;;;;;;;2.65;84.52;102776.97;5033916;28;20028;-55
2022/03/07 09:05:15;;;;;;;21.45;10.38;;;;;;;2.80;83.31;102786.91;5053657;28;20043;-55
2022/03/07 09:07:40;;;;;;;20.50;10.13;;;;;;;2.88;81.57;102787.47;5048185;28;20024;-54
2022/03/07 09:10:06;;;;;;;20.13;10.93;;;;;;;3.01;81.49;102789.63;5052937;28;20095;-54
2022/03/07 09:12:31;;;;;;;21.20;10.65;;;;;;;3.11;82.03;102785.66;5032342;28;20040;-54
2022/03/07 09:14:58;;;;;;;19.27;10.55;;;;;;;3.18;78.72;102785.31;5050534;28;20377;-55
2022/03/07 09:17:24;;;;;;;19.02;9.88;;;;;;;3.24;77.05;102786.88;5053111;28;20030;-54
2022/03/07 09:19:50;;;;;;;17.30;10.27;;;;;;;3.28;77.72;102787.59;5048788;28;20031;-54
2022/03/07 09:22:15;;;;;;;16.52;9.88;;;;;;;3.34;77.72;102784.66;5053403;28;20383;-55
2022/03/07 09:24:40;;;;;;;21.73;10.73;;;;;;;3.39;77.26;102789.75;5049114;28;20530;-55
2022/03/07 09:27:06;;;;;;;18.00;10.55;;;;;;;3.44;76.82;102782.50;5052856;28;20055;-54
2022/03/07 09:29:31;;;;;;;20.52;9.82;;;;;;;3.49;75.64;102780.50;5051115;28;20108;-54
2022/03/07 09:31:56;;;;;;;17.15;8.75;;;;;;;3.59;75.39;102781.81;5045355;28;20572;-54
2022/03/07 09:34:22;;;;;;;16.88;9.60;;;;;;;3.69;75.27;102774.34;5049247;28;20040;-55
2022/03/07 09:36:47;;;;;;;15.95;9.05;;;;;;;3.78;75.53;102775.72;5034125;28;20399;-55
2022/03/07 09:39:12;;;;;;;18.77;9.18;;;;;;;3.86;73.99;102776.22;5033818;28;20190;-54
2022/03/07 09:41:41;;;;;;;15.60;9.43;;;;;;;3.97;73.08;102776.59;5032930;28;20048;-55
2022/03/07 09:44:07;;;;;;;11.55;7.70;;;;;;;4.04;71.21;102779.78;5034198;28;20443;-55
2022/03/07 09:46:32;;;;;;;15.02;7.70;;;;;;;4.14;71.31;102770.53;5032895;28;20075;-55
2022/03/07 09:48:57;;;;;;;13.38;7.93;;;;;;;4.15;68.14;102764.31;5052220;28;20029;-54
2022/03/07 09:51:23;;;;;;;18.50;7.45;;;;;;;4.24;69.35;102769.19;5037721;28;20583;-55
2022/03/07 09:53:48;;;;;;;12.48;7.60;;;;;;;4.33;67.53;102765.22;5018976;28;20028;-54
2022/03/07 09:56:13;;;;;;;17.88;7.70;;;;;;;4.46;67.96;102776.94;5035826;28;20491;-56
2022/03/07 09:58:39;;;;;;;13.82;7.97;;;;;;;4.49;66.39;102766.19;5053284;28;20050;-55
2022/03/07 10:01:10;;;;;;;16.85;7.47;;;;;;;4.58;67.54;102764.91;5022751;28;20526;-55
2022/03/07 10:03:35;;;;;;;13.88;8.18;;;;;;;4.66;67.21;102762.72;5049192;28;20555;-55
2022/03/07 10:06:09;;;;;;;13.77;7.88;;;;;;;4.74;67.87;102751.78;5036666;28;20028;-55
2022/03/07 10:08:35;;;;;;;12.93;7.65;;;;;;;4.84;65.94;102760.13;5019476;28;20756;-54
2022/03/07 10:11:08;;;;;;;13.48;7.57;;;;;;;4.95;65.70;102759.56;5052695;28;20035;-54
2022/03/07 10:13:33;;;;;;;13.00;7.47;;;;;;;5.07;66.11;102756.31;5044896;28;20043;-55
2022/03/07 10:16:01;;;;;;;16.08;7.68;;;;;;;5.16;65.25;102753.19;5033711;28;20470;-54
2022/03/07 10:18:27;;;;;;;12.55;7.40;;;;;;;5.29;65.54;102748.09;5045534;28;20012;-54
2022/03/07 10:20:55;;;;;;;11.10;6.95;;;;;;;5.44;64.09;102751.75;5027146;28;20053;-55
2022/03/07 10:23:25;;;;;;;10.05;7.15;;;;;;;5.58;63.95;102749.25;5052342;28;20100;-54
2022/03/07 10:25:51;;;;;;;14.52;6.70;;;;;;;5.68;61.53;102754.03;5053738;28;20020;-54
2022/03/07 10:28:16;;;;;;;11.80;6.03;;;;;;;5.70;61.03;102754.81;5052914;28;20470;-53
2022/03/07 10:30:41;;;;;;;10.98;6.30;;;;;;;5.75;60.31;102744.81;5049831;28;20037;-53
2022/03/07 10:33:09;;;;;;;11.65;6.43;;;;;;;5.78;59.48;102742.84;5051343;28;20670;-54
2022/03/07 10:35:48;;;;;;;9.23;6.10;;;;;;;5.89;60.09;102737.00;5045089;28;20054;-54
2022/03/07 10:38:15;;;;;;;10.20;6.50;;;;;;;6.05;59.40;102729.06;5061268;28;20020;-53
2022/03/07 10:40:43;;;;;;;14.80;6.35;;;;;;;6.16;60.11;102724.03;5072378;28;20288;-52
2022/03/07 10:43:11;;;;;;;12.00;6.00;;;;;;;6.24;57.82;102723.56;5071985;28;20398;-53
2022/03/07 10:46:03;;;;;;;11.13;6.40;;;;;;;6.39;60.24;102723.66;5072866;28;20553;-53
2022/03/07 10:48:39;;;;;;;11.45;6.38;;;;;;;6.45;58.48;102712.69;5067972;28;20629;-54
2022/03/07 10:51:05;;;;;;;12.20;6.28;;;;;;;6.46;56.59;102714.41;5068195;28;20502;-53
2022/03/07 10:53:40;;;;;;;11.40;6.00;;;;;;;6.53;57.81;102697.19;5052883;28;20082;-55
2022/03/07 10:56:05;;;;;;;8.55;5.95;;;;;;;6.64;56.42;102705.38;5061910;28;20047;-55
2022/03/07 10:58:31;;;;;;;10.65;6.45;;;;;;;6.71;56.75;102704.06;5071486;28;20177;-55
2022/03/07 11:00:57;;;;;;;11.45;6.13;;;;;;;6.77;55.88;102694.91;5065007;28;20044;-55
2022/03/07 11:03:25;;;;;;;12.30;5.80;;;;;;;6.81;56.46;102684.97;5051165;28;20044;-55